Serenade Of The Seas — C6FV8 — position and weather

sailwx.info

Track history (hours):
 
Tides and Currents Weather Stations Pressure Air Temp Water Temp Dewpoint Dewpoint Depression Visibility Wind Speed Wind Dir Waves Ship Positions

Serenade Of The Seas

Operator: Royal Caribbean Cruises Ltd

Last reported at 2019-Jan-23 06:00 UTC. Time now 2019-Jan-23 09:03 UTC.
Position N 19°24' W 074°18'.

Length 294 m; draft 8.5 m.

Type: Ship. MMSI: 311492000.

Wind from 050 at 25 knots

Barometer 1013.0 mb
Air temperature 26.0 ° C
Visibility: greater than 10.8 NM
Dewpoint 26.0 ° C
Water temperature 29.0 ° C

Date/timePositionNaut miles runAvg speedWind from/ knotsBaromVisibWave heightAir tempDewpointWater temp
2019-Jan-23 06:00N 19°24' W 074°18'8914.8 050 / 251013.010.8 26.026.029.0
2019-Jan-23 00:00N 20°48' W 074°48'30316.9 080 / 401013.0 25.0 27.0
2019-Jan-22 06:00N 23°48' W 079°12'10618.6 080 / 301016.010.8 22.022.029.0
2019-Jan-22 00:16N 25°28' W 079°51'415.6
2019-Jan-22 00:00N 25°32' W 079°52'4370.1
2019-Jan-22 00:00N 25°30' W 079°48'1224.3 060 / 211018.0 21.0 26.0
2019-Jan-21 23:30N 25°40' W 079°55'816.4
2019-Jan-21 23:00N 25°48' W 079°58'816.3
2019-Jan-21 22:30N 25°55' W 080°01'713.0
2019-Jan-21 22:00N 26°02' W 080°03'5 9.1
2019-Jan-21 21:30N 26°06' W 080°05'2 3.3
2019-Jan-21 20:59N 26°05' W 080°07'0 0.0
2019-Jan-21 20:29N 26°05' W 080°07'0 0.0
2019-Jan-21 19:59N 26°05' W 080°07'0 0.0
2019-Jan-21 19:29N 26°05' W 080°07'0 0.0
2019-Jan-21 19:01N 26°05' W 080°07'0 0.0
2019-Jan-21 18:31N 26°05' W 080°07'0 0.0
2019-Jan-21 18:01N 26°05' W 080°07'0 0.0
2019-Jan-21 17:31N 26°05' W 080°07'0 0.0
2019-Jan-21 17:00N 26°05' W 080°07'0 0.0
2019-Jan-21 16:31N 26°05' W 080°07'0 0.0
2019-Jan-21 16:00N 26°05' W 080°07'0 0.0
2019-Jan-21 15:31N 26°05' W 080°07'0 0.0
2019-Jan-21 15:00N 26°05' W 080°07'0 0.0
2019-Jan-21 14:30N 26°05' W 080°07'0 0.0
2019-Jan-21 14:00N 26°05' W 080°07'0 0.0
2019-Jan-21 13:30N 26°05' W 080°07'0 0.0
2019-Jan-21 13:00N 26°05' W 080°07'0 0.0
2019-Jan-21 12:30N 26°05' W 080°07'0 0.0
2019-Jan-21 12:00N 26°05' W 080°07'0 0.0
2019-Jan-21 11:30N 26°05' W 080°07'0 0.4
2019-Jan-21 11:00N 26°05' W 080°07'4 8.8
2019-Jan-21 10:30N 26°06' W 080°02'713.6
2019-Jan-21 10:00N 26°07' W 079°55'815.2
2019-Jan-21 09:30N 26°08' W 079°46'6318.0
2019-Jan-21 06:00N 26°06' W 078°36'10517.6 340 / 251014.010.8 20.020.026.0
2019-Jan-21 00:00N 25°42' W 076°42'31017.2 290 / 301009.0 23.0 25.0
2019-Jan-20 06:00N 23°06' W 071°48'10417.3 140 / 181012.010.8 24.024.028.0
2019-Jan-20 00:00N 22°12' W 070°12'32418.0 110 / 171013.0 25.0 27.0
2019-Jan-19 06:00N 19°30' W 065°12'12417.7 060 / 201013.010.8 25.025.029.0
2019-Jan-18 22:59N 18°14' W 063°28'817.5
2019-Jan-18 22:30N 18°10' W 063°21'1017.9
2019-Jan-18 21:55N 18°03' W 063°13'717.2
2019-Jan-18 21:30N 18°00' W 063°06'3 2.3
2019-Jan-18 20:18N 18°01' W 063°03'0 0.0
2019-Jan-18 19:30N 18°01' W 063°03'0 0.0
2019-Jan-18 18:50N 18°01' W 063°03'0 0.0
2019-Jan-18 18:29N 18°01' W 063°03'0 0.0
2019-Jan-18 17:42N 18°01' W 063°03'0 0.0
2019-Jan-18 17:25N 18°01' W 063°03'0 0.0
2019-Jan-18 16:53N 18°01' W 063°03'0 0.0
2019-Jan-18 16:25N 18°01' W 063°03'0 0.0
2019-Jan-18 15:58N 18°01' W 063°03'0 0.0
2019-Jan-18 15:23N 18°01' W 063°03'0 0.0
2019-Jan-18 14:57N 18°01' W 063°03'0 0.0
2019-Jan-18 14:02N 18°01' W 063°03'0 0.0
2019-Jan-18 13:15N 18°01' W 063°03'0 0.0
2019-Jan-18 12:48N 18°01' W 063°03'0 0.0
2019-Jan-18 12:14N 18°01' W 063°03'0 0.0
2019-Jan-18 11:58N 18°01' W 063°03'0 0.0
2019-Jan-18 10:49N 18°01' W 063°03'0 1.1
2019-Jan-18 10:30N 18°00' W 063°03'7 7.3
2019-Jan-18 09:33N 17°60' W 063°10'3 8.3
2019-Jan-18 09:11N 17°59' W 063°13'4 8.7
2019-Jan-18 08:44N 17°59' W 063°17'14 2.4
2019-Jan-18 03:00N 17°46' W 063°20'5 8.4
2019-Jan-18 02:27N 17°44' W 063°15'4 8.7
2019-Jan-18 02:00N 17°42' W 063°12'4 8.7
2019-Jan-18 01:30N 17°38' W 063°09'4 8.7
2019-Jan-18 01:00N 17°34' W 063°07'5 8.8
2019-Jan-18 00:26N 17°30' W 063°05'10 8.8
2019-Jan-17 23:20N 17°23' W 062°58'23 1.5
2019-Jan-17 07:53N 17°01' W 062°51'5 7.2
2019-Jan-17 07:11N 16°56' W 062°50'11 9.3
2019-Jan-17 06:00N 16°48' W 062°42'42 1.8 120 / 121013.010.8 25.025.029.0
2019-Jan-16 06:00N 17°30' W 062°48'1721.3 090 / 201011.010.8 25.025.029.0
2019-Jan-16 05:11N 17°39' W 063°04'513.3
2019-Jan-16 04:48N 17°41' W 063°08'413.7
2019-Jan-16 04:29N 17°42' W 063°13'713.3
2019-Jan-16 03:59N 17°45' W 063°19'713.3
2019-Jan-16 03:29N 17°49' W 063°24'812.8
2019-Jan-16 02:54N 17°50' W 063°32'73 8.2
2019-Jan-15 18:00N 17°42' W 064°48'34 2.9 030 / 121012.0 28.0 27.0
2019-Jan-15 06:00N 17°42' W 065°24'96 4.0 100 / 201011.010.8 25.025.029.0
2019-Jan-14 06:00N 19°06' W 066°12'37615.7 090 / 151013.010.8 25.025.029.0
2019-Jan-13 06:00N 22°42' W 071°42'   090 / 101014.010.8 23.023.028.0
Track history (hours):
 
Tides and Currents Weather Stations Pressure Air Temp Water Temp Dewpoint Dewpoint Depression Visibility Wind Speed Wind Dir Waves Ship Positions

Serenade Of The Seas

Operator: Royal Caribbean Cruises Ltd

Last reported at 2019-Jan-23 06:00 UTC. Time now 2019-Jan-23 09:03 UTC.
Position N 19°24' W 074°18'.

Length 294 m; draft 8.5 m.

Type: Ship. MMSI: 311492000.

Wind from 050 at 25 knots

Barometer 1013.0 mb
Air temperature 26.0 ° C
Visibility: greater than 10.8 NM
Dewpoint 26.0 ° C
Water temperature 29.0 ° C

Date/timePositionNaut miles runAvg speedWind from/ knotsBaromVisibWave heightAir tempDewpointWater temp
2019-Jan-23 06:00N 19°24' W 074°18'8914.8 050 / 251013.010.8 26.026.029.0
2019-Jan-23 00:00N 20°48' W 074°48'30316.9 080 / 401013.0 25.0 27.0
2019-Jan-22 06:00N 23°48' W 079°12'10618.6 080 / 301016.010.8 22.022.029.0
2019-Jan-22 00:16N 25°28' W 079°51'415.6
2019-Jan-22 00:00N 25°32' W 079°52'4370.1
2019-Jan-22 00:00N 25°30' W 079°48'1224.3 060 / 211018.0 21.0 26.0
2019-Jan-21 23:30N 25°40' W 079°55'816.4
2019-Jan-21 23:00N 25°48' W 079°58'816.3
2019-Jan-21 22:30N 25°55' W 080°01'713.0
2019-Jan-21 22:00N 26°02' W 080°03'5 9.1
2019-Jan-21 21:30N 26°06' W 080°05'2 3.3
2019-Jan-21 20:59N 26°05' W 080°07'0 0.0
2019-Jan-21 20:29N 26°05' W 080°07'0 0.0
2019-Jan-21 19:59N 26°05' W 080°07'0 0.0
2019-Jan-21 19:29N 26°05' W 080°07'0 0.0
2019-Jan-21 19:01N 26°05' W 080°07'0 0.0
2019-Jan-21 18:31N 26°05' W 080°07'0 0.0
2019-Jan-21 18:01N 26°05' W 080°07'0 0.0
2019-Jan-21 17:31N 26°05' W 080°07'0 0.0
2019-Jan-21 17:00N 26°05' W 080°07'0 0.0
2019-Jan-21 16:31N 26°05' W 080°07'0 0.0
2019-Jan-21 16:00N 26°05' W 080°07'0 0.0
2019-Jan-21 15:31N 26°05' W 080°07'0 0.0
2019-Jan-21 15:00N 26°05' W 080°07'0 0.0
2019-Jan-21 14:30N 26°05' W 080°07'0 0.0
2019-Jan-21 14:00N 26°05' W 080°07'0 0.0
2019-Jan-21 13:30N 26°05' W 080°07'0 0.0
2019-Jan-21 13:00N 26°05' W 080°07'0 0.0
2019-Jan-21 12:30N 26°05' W 080°07'0 0.0
2019-Jan-21 12:00N 26°05' W 080°07'0 0.0
2019-Jan-21 11:30N 26°05' W 080°07'0 0.4
2019-Jan-21 11:00N 26°05' W 080°07'4 8.8
2019-Jan-21 10:30N 26°06' W 080°02'713.6
2019-Jan-21 10:00N 26°07' W 079°55'815.2
2019-Jan-21 09:30N 26°08' W 079°46'6318.0
2019-Jan-21 06:00N 26°06' W 078°36'10517.6 340 / 251014.010.8 20.020.026.0
2019-Jan-21 00:00N 25°42' W 076°42'31017.2 290 / 301009.0 23.0 25.0
2019-Jan-20 06:00N 23°06' W 071°48'10417.3 140 / 181012.010.8 24.024.028.0
2019-Jan-20 00:00N 22°12' W 070°12'32418.0 110 / 171013.0 25.0 27.0
2019-Jan-19 06:00N 19°30' W 065°12'12417.7 060 / 201013.010.8 25.025.029.0
2019-Jan-18 22:59N 18°14' W 063°28'817.5
2019-Jan-18 22:30N 18°10' W 063°21'1017.9
2019-Jan-18 21:55N 18°03' W 063°13'717.2
2019-Jan-18 21:30N 18°00' W 063°06'3 2.3
2019-Jan-18 20:18N 18°01' W 063°03'0 0.0
2019-Jan-18 19:30N 18°01' W 063°03'0 0.0
2019-Jan-18 18:50N 18°01' W 063°03'0 0.0
2019-Jan-18 18:29N 18°01' W 063°03'0 0.0
2019-Jan-18 17:42N 18°01' W 063°03'0 0.0
2019-Jan-18 17:25N 18°01' W 063°03'0 0.0
2019-Jan-18 16:53N 18°01' W 063°03'0 0.0
2019-Jan-18 16:25N 18°01' W 063°03'0 0.0
2019-Jan-18 15:58N 18°01' W 063°03'0 0.0
2019-Jan-18 15:23N 18°01' W 063°03'0 0.0
2019-Jan-18 14:57N 18°01' W 063°03'0 0.0
2019-Jan-18 14:02N 18°01' W 063°03'0 0.0
2019-Jan-18 13:15N 18°01' W 063°03'0 0.0
2019-Jan-18 12:48N 18°01' W 063°03'0 0.0
2019-Jan-18 12:14N 18°01' W 063°03'0 0.0
2019-Jan-18 11:58N 18°01' W 063°03'0 0.0
2019-Jan-18 10:49N 18°01' W 063°03'0 1.1
2019-Jan-18 10:30N 18°00' W 063°03'7 7.3
2019-Jan-18 09:33N 17°60' W 063°10'3 8.3
2019-Jan-18 09:11N 17°59' W 063°13'4 8.7
2019-Jan-18 08:44N 17°59' W 063°17'14 2.4
2019-Jan-18 03:00N 17°46' W 063°20'5 8.4
2019-Jan-18 02:27N 17°44' W 063°15'4 8.7
2019-Jan-18 02:00N 17°42' W 063°12'4 8.7
2019-Jan-18 01:30N 17°38' W 063°09'4 8.7
2019-Jan-18 01:00N 17°34' W 063°07'5 8.8
2019-Jan-18 00:26N 17°30' W 063°05'10 8.8
2019-Jan-17 23:20N 17°23' W 062°58'23 1.5
2019-Jan-17 07:53N 17°01' W 062°51'5 7.2
2019-Jan-17 07:11N 16°56' W 062°50'11 9.3
2019-Jan-17 06:00N 16°48' W 062°42'42 1.8 120 / 121013.010.8 25.025.029.0
2019-Jan-16 06:00N 17°30' W 062°48'1721.3 090 / 201011.010.8 25.025.029.0
2019-Jan-16 05:11N 17°39' W 063°04'513.3
2019-Jan-16 04:48N 17°41' W 063°08'413.7
2019-Jan-16 04:29N 17°42' W 063°13'713.3
2019-Jan-16 03:59N 17°45' W 063°19'713.3
2019-Jan-16 03:29N 17°49' W 063°24'812.8
2019-Jan-16 02:54N 17°50' W 063°32'73 8.2
2019-Jan-15 18:00N 17°42' W 064°48'34 2.9 030 / 121012.0 28.0 27.0
2019-Jan-15 06:00N 17°42' W 065°24'96 4.0 100 / 201011.010.8 25.025.029.0
2019-Jan-14 06:00N 19°06' W 066°12'37615.7 090 / 151013.010.8 25.025.029.0
2019-Jan-13 06:00N 22°42' W 071°42'   090 / 101014.010.8 23.023.028.0

Dump ship's entire track history